createdAt,value
2019-03-22T00:02:15.445Z,40.70
2019-03-22T00:04:43.648Z,40.30
2019-03-22T00:07:11.889Z,36.73
2019-03-22T00:09:40.110Z,37.67
2019-03-22T00:12:08.372Z,39.60
2019-03-22T00:14:37.122Z,40.77
2019-03-22T00:17:05.469Z,39.97
2019-03-22T00:19:33.657Z,39.17
2019-03-22T00:22:01.897Z,40.73
2019-03-22T00:24:30.174Z,38.90
2019-03-22T00:26:58.357Z,39.50
2019-03-22T00:29:26.600Z,39.47
2019-03-22T00:31:54.826Z,41.80
2019-03-22T00:34:23.020Z,41.70
2019-03-22T00:36:51.221Z,39.23
2019-03-22T00:39:19.439Z,38.27
2019-03-22T00:41:47.669Z,40.73
2019-03-22T00:44:15.864Z,38.60
2019-03-22T00:46:44.068Z,40.30
2019-03-22T00:49:12.261Z,40.73
2019-03-22T00:51:40.454Z,41.93
2019-03-22T00:54:08.640Z,39.50
2019-03-22T00:56:36.840Z,37.73
2019-03-22T00:59:05.069Z,36.13
2019-03-22T01:01:33.305Z,36.93
2019-03-22T01:04:01.533Z,37.87
2019-03-22T01:06:29.727Z,37.57
2019-03-22T01:08:57.917Z,38.40
2019-03-22T01:11:26.145Z,36.90
2019-03-22T01:13:54.377Z,38.27
2019-03-22T01:16:22.555Z,39.13
2019-03-22T01:18:50.789Z,37.90
2019-03-22T01:21:18.966Z,38.20
2019-03-22T01:23:47.160Z,37.93
2019-03-22T01:26:15.346Z,36.20
2019-03-22T01:28:43.547Z,37.23
2019-03-22T01:31:11.731Z,37.30
2019-03-22T01:33:39.953Z,35.77
2019-03-22T01:36:08.204Z,37.17
2019-03-22T01:38:36.453Z,35.93
2019-03-22T01:41:04.632Z,34.20
2019-03-22T01:43:32.851Z,37.05
2019-03-22T01:46:01.041Z,34.13
2019-03-22T01:48:29.257Z,31.73
2019-03-22T01:50:57.473Z,33.03
2019-03-22T01:53:25.697Z,31.20
2019-03-22T01:55:53.913Z,34.77
2019-03-22T01:58:22.099Z,33.17
2019-03-22T02:00:50.300Z,32.80
2019-03-22T02:03:18.480Z,31.83
2019-03-22T02:05:46.705Z,33.37
2019-03-22T02:08:14.908Z,32.03
2019-03-22T02:10:43.126Z,31.27
2019-03-22T02:13:11.303Z,32.15
2019-03-22T02:15:39.528Z,32.27
2019-03-22T02:18:07.720Z,30.40
2019-03-22T02:20:35.904Z,31.75
2019-03-22T02:23:04.136Z,32.15
2019-03-22T02:25:33.293Z,32.40
2019-03-22T02:28:04.330Z,32.43
2019-03-22T02:30:31.429Z,31.80
2019-03-22T02:32:59.670Z,29.50
2019-03-22T02:37:56.914Z,31.15
2019-03-22T02:42:52.453Z,30.90
2019-03-22T02:45:20.677Z,29.70
2019-03-22T02:47:48.857Z,30.40
2019-03-22T02:50:19.191Z,30.30
2019-03-22T02:52:46.936Z,30.50
2019-03-22T02:55:15.182Z,30.10
2019-03-22T02:57:43.431Z,29.30
2019-03-22T03:00:12.789Z,30.70
2019-03-22T03:02:40.977Z,30.10
2019-03-22T03:05:09.770Z,30.23
2019-03-22T03:07:38.022Z,31.40
2019-03-22T03:10:07.756Z,30.10
2019-03-22T03:12:35.979Z,29.15
2019-03-22T03:15:05.708Z,29.17
2019-03-22T03:17:33.888Z,29.83
2019-03-22T03:20:02.107Z,30.20
2019-03-22T03:22:30.371Z,29.63
2019-03-22T03:24:58.585Z,30.80
2019-03-22T03:27:26.809Z,30.40
2019-03-22T03:29:55.001Z,31.07
2019-03-22T03:32:23.231Z,30.40
2019-03-22T03:37:18.802Z,31.87
2019-03-22T03:39:47.021Z,31.13
2019-03-22T03:42:15.214Z,31.03
2019-03-22T03:44:43.415Z,30.37
2019-03-22T03:47:11.641Z,30.17
2019-03-22T03:49:39.861Z,31.53
2019-03-22T03:52:08.082Z,31.93
2019-03-22T03:54:36.336Z,29.00
2019-03-22T03:57:04.590Z,31.80
2019-03-22T03:59:32.798Z,32.07
2019-03-22T04:02:00.981Z,31.07
2019-03-22T04:04:29.178Z,31.90
2019-03-22T04:06:57.361Z,31.47
2019-03-22T04:09:25.664Z,31.03
2019-03-22T04:11:53.892Z,31.97
2019-03-22T04:14:22.076Z,33.67
2019-03-22T04:16:50.268Z,34.80
2019-03-22T04:19:18.502Z,36.20
2019-03-22T04:21:46.726Z,35.30
2019-03-22T04:24:15.009Z,34.80
2019-03-22T04:26:43.208Z,36.00
2019-03-22T04:29:11.426Z,35.83
2019-03-22T04:31:39.713Z,35.03
2019-03-22T04:34:07.933Z,35.00
2019-03-22T04:36:36.237Z,34.13
2019-03-22T04:41:44.204Z,35.10
2019-03-22T04:44:12.427Z,36.97
2019-03-22T04:46:41.521Z,34.97
2019-03-22T04:49:09.808Z,33.23
2019-03-22T04:51:39.093Z,36.37
2019-03-22T04:54:07.867Z,35.53
2019-03-22T04:56:37.379Z,35.70
2019-03-22T04:59:17.933Z,35.30
2019-03-22T05:01:38.196Z,36.10
2019-03-22T05:04:07.164Z,34.57
2019-03-22T05:06:35.959Z,36.10
2019-03-22T05:09:05.713Z,35.37
2019-03-22T05:11:33.942Z,35.20
2019-03-22T05:14:02.233Z,34.73
2019-03-22T05:16:30.713Z,34.50
2019-03-22T05:19:00.432Z,35.03
2019-03-22T05:21:28.781Z,36.13
2019-03-22T05:23:58.509Z,34.40
2019-03-22T05:26:27.772Z,28.45
2019-03-22T05:28:56.049Z,29.00
2019-03-22T05:31:31.616Z,28.70
2019-03-22T05:33:59.822Z,28.50
2019-03-22T05:36:28.016Z,26.30
2019-03-22T05:43:50.910Z,30.25
2019-03-22T05:48:46.527Z,27.83
2019-03-22T05:51:14.754Z,28.30
2019-03-22T05:53:43.034Z,28.10
2019-03-22T05:56:11.220Z,27.65
2019-03-22T05:58:39.442Z,29.33
2019-03-22T06:01:07.689Z,28.50
2019-03-22T06:03:35.872Z,29.93
2019-03-22T06:06:04.087Z,29.80
2019-03-22T06:08:32.363Z,28.60
2019-03-22T06:11:00.543Z,29.53
2019-03-22T06:13:28.728Z,28.77
2019-03-22T06:15:56.924Z,28.70
2019-03-22T06:18:25.153Z,29.90
2019-03-22T06:20:53.335Z,28.00
2019-03-22T06:23:21.545Z,31.53
2019-03-22T06:25:49.823Z,31.70
2019-03-22T06:28:18.040Z,29.73
2019-03-22T06:30:46.266Z,30.97
2019-03-22T06:33:14.477Z,29.40
2019-03-22T06:35:42.692Z,30.97
2019-03-22T06:38:10.909Z,28.80
2019-03-22T06:40:39.122Z,31.87
2019-03-22T06:43:07.324Z,31.00
2019-03-22T06:45:35.508Z,30.55
2019-03-22T06:48:03.989Z,31.00
2019-03-22T06:50:32.183Z,28.97
2019-03-22T06:53:00.398Z,27.45
2019-03-22T06:55:28.592Z,24.80
2019-03-22T06:57:56.782Z,25.90
2019-03-22T07:00:24.972Z,26.90
2019-03-22T07:02:53.167Z,27.00
2019-03-22T07:05:21.385Z,27.33
2019-03-22T07:17:39.085Z,28.95
2019-03-22T07:20:07.673Z,30.40
2019-03-22T07:25:04.724Z,26.90
2019-03-22T07:27:32.961Z,25.73
2019-03-22T07:30:02.648Z,25.80
2019-03-22T07:32:30.840Z,23.55
2019-03-22T07:34:59.038Z,24.30
2019-03-22T07:37:27.223Z,24.30
2019-03-22T07:39:55.454Z,25.40
2019-03-22T07:42:23.741Z,23.90
2019-03-22T07:44:51.952Z,24.25
2019-03-22T07:47:21.068Z,23.80
2019-03-22T07:54:43.955Z,25.10
2019-03-22T07:57:12.168Z,23.25
2019-03-22T07:59:40.360Z,21.90
2019-03-22T08:02:08.558Z,22.75
2019-03-22T08:04:37.637Z,22.60
2019-03-22T08:07:05.846Z,24.35
2019-03-22T08:09:34.076Z,23.00
2019-03-22T08:12:03.254Z,22.50
2019-03-22T08:14:32.417Z,23.40
2019-03-22T08:17:00.675Z,24.35
2019-03-22T08:19:29.793Z,22.10
2019-03-22T08:21:57.972Z,20.70
2019-03-22T08:24:26.196Z,21.90
2019-03-22T08:26:54.443Z,21.90
2019-03-22T08:34:17.348Z,22.80
2019-03-22T08:41:40.470Z,22.63
2019-03-22T08:44:08.713Z,23.70
2019-03-22T08:46:36.915Z,23.70
2019-03-22T08:49:05.151Z,23.10
2019-03-22T08:51:33.501Z,21.30
2019-03-22T08:54:01.804Z,21.25
2019-03-22T08:56:30.051Z,22.30
2019-03-22T08:58:58.285Z,21.10
2019-03-22T09:01:26.502Z,22.80
2019-03-22T09:03:54.686Z,22.55
2019-03-22T09:06:22.877Z,21.30
2019-03-22T09:08:51.105Z,23.05
2019-03-22T09:11:19.413Z,21.23
2019-03-22T09:13:47.677Z,22.43
2019-03-22T09:16:15.935Z,23.17
2019-03-22T09:18:44.175Z,24.70
2019-03-22T09:21:12.442Z,22.90
2019-03-22T09:23:40.734Z,21.47
2019-03-22T09:26:09.034Z,22.70
2019-03-22T09:28:37.418Z,24.33
2019-03-22T09:31:11.675Z,21.20
2019-03-22T09:33:35.569Z,20.63
2019-03-22T09:36:03.881Z,22.00
2019-03-22T09:38:32.185Z,23.10
2019-03-22T09:41:00.436Z,21.63
2019-03-22T09:43:28.673Z,20.53
2019-03-22T09:50:51.821Z,22.40
2019-03-22T09:53:20.078Z,22.45
2019-03-22T09:55:49.207Z,22.40
2019-03-22T10:00:48.268Z,23.40
2019-03-22T10:03:14.716Z,18.30
2019-03-22T10:10:37.675Z,19.90
2019-03-22T10:35:25.002Z,23.10
2019-03-22T10:37:42.427Z,23.90
2019-03-22T10:40:10.835Z,25.20
2019-03-22T10:42:39.062Z,25.20
2019-03-22T10:45:07.627Z,24.60
2019-03-22T10:47:35.939Z,26.70
2019-03-22T10:50:08.144Z,27.50
2019-03-22T10:52:36.424Z,25.90
2019-03-22T10:55:23.224Z,25.55
2019-03-22T10:57:35.869Z,24.37
2019-03-22T11:00:05.589Z,22.40
2019-03-22T11:02:33.818Z,23.90
2019-03-22T11:05:02.329Z,22.90
2019-03-22T11:07:30.829Z,22.83
2019-03-22T11:09:59.961Z,22.35
2019-03-22T11:12:28.175Z,22.50
2019-03-22T11:14:56.388Z,21.50
2019-03-22T11:17:24.572Z,20.60
2019-03-22T11:19:52.765Z,21.00
2019-03-22T11:22:20.981Z,22.30
2019-03-22T11:34:40.226Z,22.13
2019-03-22T11:37:09.309Z,22.40
2019-03-22T11:39:38.408Z,22.50
2019-03-22T11:42:07.511Z,22.50
2019-03-22T11:44:35.721Z,23.97
2019-03-22T11:47:03.946Z,21.97
2019-03-22T11:49:32.169Z,23.20
2019-03-22T11:52:01.326Z,22.30
2019-03-22T11:54:29.550Z,23.77
2019-03-22T11:56:57.776Z,23.70
2019-03-22T11:59:27.045Z,21.37
2019-03-22T12:01:55.223Z,24.10
2019-03-22T12:04:23.416Z,24.60
2019-03-22T12:06:51.633Z,26.20
2019-03-22T12:09:19.819Z,24.07
2019-03-22T12:14:15.456Z,24.13
2019-03-22T12:16:43.677Z,24.30
2019-03-22T12:19:11.865Z,24.50
2019-03-22T12:29:02.208Z,25.10
2019-03-22T12:31:30.445Z,24.50
2019-03-22T12:33:58.781Z,23.70
2019-03-22T12:36:26.965Z,22.60
2019-03-22T12:41:22.500Z,22.90
2019-03-22T12:46:18.153Z,21.25
2019-03-22T12:51:13.707Z,23.40
2019-03-22T12:53:41.930Z,23.65
2019-03-22T13:01:04.904Z,22.80
2019-03-22T13:08:27.796Z,21.70
2019-03-22T13:18:18.066Z,24.30
2019-03-22T13:47:47.286Z,21.70
2019-03-22T16:02:36.633Z,16.60
2019-03-22T16:05:06.737Z,18.63
2019-03-22T16:07:34.924Z,18.07
2019-03-22T16:10:04.584Z,17.53
2019-03-22T16:12:32.809Z,17.90
2019-03-22T16:15:01.107Z,17.20
2019-03-22T16:17:29.300Z,18.10
2019-03-22T16:19:57.493Z,17.97
2019-03-22T16:22:25.680Z,18.23
2019-03-22T16:24:53.888Z,19.50
2019-03-22T16:27:22.067Z,18.50
2019-03-22T16:29:50.337Z,17.73
2019-03-22T16:32:18.560Z,18.80
2019-03-22T16:34:46.839Z,18.27
2019-03-22T16:37:15.028Z,19.47
2019-03-22T16:39:43.221Z,17.73
2019-03-22T16:42:11.458Z,18.90
2019-03-22T16:44:39.749Z,18.53
2019-03-22T16:47:07.968Z,18.63
2019-03-22T16:49:36.190Z,18.67
2019-03-22T16:52:04.580Z,18.30
2019-03-22T16:54:32.803Z,20.30
2019-03-22T16:57:01.024Z,18.20
2019-03-22T16:59:29.253Z,18.80
2019-03-22T17:01:57.444Z,19.50
2019-03-22T17:04:25.663Z,18.63
2019-03-22T17:06:53.927Z,18.50
2019-03-22T17:09:22.199Z,19.80
2019-03-22T17:11:50.423Z,20.50
2019-03-22T17:14:18.616Z,20.57
2019-03-22T17:31:31.056Z,23.60
2019-03-22T17:33:59.277Z,21.37
2019-03-22T17:36:27.549Z,21.67
2019-03-22T17:38:55.739Z,23.17
2019-03-22T17:41:24.824Z,22.53
2019-03-22T17:43:53.055Z,23.10
2019-03-22T17:46:21.346Z,21.30
2019-03-22T17:48:49.590Z,20.90
2019-03-22T17:51:17.806Z,21.35
2019-03-22T17:53:45.994Z,21.90
2019-03-22T18:28:09.935Z,27.20
2019-03-22T18:30:38.164Z,28.00
2019-03-22T18:33:06.359Z,27.90
2019-03-22T18:35:34.600Z,28.00
2019-03-22T19:14:53.523Z,33.67
2019-03-22T19:17:21.874Z,33.70
2019-03-22T19:19:50.124Z,33.83
2019-03-22T19:22:18.350Z,32.67
2019-03-22T19:24:46.548Z,33.13
2019-03-22T19:27:14.739Z,33.43
2019-03-22T19:29:42.981Z,32.30
2019-03-22T19:32:13.781Z,33.30
2019-03-22T19:34:41.061Z,33.20
2019-03-22T19:37:09.369Z,33.20
2019-03-22T19:39:37.639Z,33.45
2019-03-22T19:42:05.839Z,32.80
2019-03-22T19:44:34.066Z,35.45
2019-03-22T19:49:29.711Z,34.80
2019-03-22T19:51:57.948Z,34.10
2019-03-22T19:54:26.168Z,36.10
2019-03-22T19:56:54.400Z,35.70
2019-03-22T19:59:22.669Z,34.30
2019-03-22T20:04:18.220Z,35.30
2019-03-22T20:09:13.799Z,34.80
2019-03-22T20:11:41.988Z,36.70
2019-03-22T20:16:37.587Z,36.30
2019-03-22T20:28:55.213Z,34.40
2019-03-22T20:31:23.423Z,35.60
2019-03-22T20:33:51.632Z,36.30
2019-03-22T20:36:19.837Z,34.93
2019-03-22T20:41:15.391Z,34.90
2019-03-22T20:43:43.583Z,34.30
2019-03-22T20:46:11.890Z,34.50
2019-03-22T20:48:40.169Z,34.50
2019-03-22T20:51:08.393Z,35.90
2019-03-22T20:56:03.936Z,35.00
2019-03-22T20:58:32.136Z,36.10
2019-03-22T21:01:00.344Z,37.80
2019-03-22T21:03:28.577Z,37.10
2019-03-22T21:05:56.800Z,35.50
2019-03-22T21:08:25.007Z,36.83
2019-03-22T21:10:53.230Z,34.93
2019-03-22T21:13:21.423Z,35.27
2019-03-22T21:15:49.649Z,39.10
2019-03-22T21:18:17.868Z,37.25
2019-03-22T21:20:46.096Z,38.15
2019-03-22T21:23:14.284Z,37.10
2019-03-22T21:25:42.489Z,38.17
2019-03-22T21:28:10.719Z,36.47
2019-03-22T21:30:38.992Z,35.93
2019-03-22T21:33:07.255Z,36.37
2019-03-22T21:35:37.483Z,37.30
2019-03-22T21:38:10.941Z,37.30
2019-03-22T21:40:35.346Z,39.27
2019-03-22T21:43:03.646Z,38.37
2019-03-22T21:45:31.942Z,37.67
2019-03-22T21:48:00.216Z,38.83
2019-03-22T21:50:28.409Z,37.57
2019-03-22T21:52:56.616Z,40.07
2019-03-22T21:55:24.804Z,40.27
2019-03-22T21:57:53.037Z,38.90
2019-03-22T22:00:21.265Z,39.50
2019-03-22T22:02:49.488Z,37.70
2019-03-22T22:05:18.470Z,38.07
2019-03-22T22:07:46.660Z,39.50
